Time;durP1;ratioP1;P1;durP2;ratioP2;P2;SDS_P1;SDS_P2;PMS_P1;PMS_P2;Temp;Humidity;BMP_temperature;BMP_pressure;BME280_temperature;BME280_humidity;BME280_pressure;Samples;Min_cycle;Max_cycle;Signal;HPM_P1;HPM_P2
2023/10/01 00:00:12;;;;;;;13.63;8.93;;;;;;;13.93;100.00;99064.53;5135207;27;20205;-72
2023/10/01 00:02:41;;;;;;;11.47;8.33;;;;;;;13.92;100.00;99073.59;5134826;27;20211;-72
2023/10/01 00:05:09;;;;;;;14.60;9.13;;;;;;;13.96;100.00;99065.94;5135118;27;20560;-72
2023/10/01 00:07:37;;;;;;;14.37;9.00;;;;;;;13.95;100.00;99067.81;5134869;27;20222;-72
2023/10/01 00:10:10;;;;;;;14.03;7.80;;;;;;;13.96;100.00;99064.09;5135062;27;20214;-72
2023/10/01 00:12:40;;;;;;;12.93;8.80;;;;;;;13.93;100.00;99067.19;5134935;27;20190;-72
2023/10/01 00:15:12;;;;;;;11.67;8.40;;;;;;;13.90;100.00;99067.66;5134705;27;20206;-72
2023/10/01 00:17:40;;;;;;;15.07;8.67;;;;;;;13.90;100.00;99067.66;5134927;27;20257;-72
2023/10/01 00:20:16;;;;;;;13.47;8.90;;;;;;;13.77;100.00;99059.72;5134538;27;20644;-72
2023/10/01 00:22:43;;;;;;;12.40;8.93;;;;;;;13.67;100.00;99061.19;5134895;27;20190;-72
2023/10/01 00:25:10;;;;;;;13.03;8.37;;;;;;;13.70;100.00;99053.56;5134658;27;20202;-72
2023/10/01 00:27:37;;;;;;;11.50;8.27;;;;;;;13.69;100.00;99054.59;5134414;27;20313;-72
2023/10/01 00:30:06;;;;;;;13.80;9.10;;;;;;;13.54;100.00;99051.41;5134610;27;20209;-72
2023/10/01 00:32:33;;;;;;;11.20;8.40;;;;;;;13.47;100.00;99047.13;5134277;27;20216;-72
2023/10/01 00:35:03;;;;;;;14.13;8.53;;;;;;;13.49;100.00;99047.72;5134928;27;20214;-72
2023/10/01 00:37:29;;;;;;;14.83;8.60;;;;;;;13.49;100.00;99050.41;5134522;27;20287;-72
2023/10/01 00:39:57;;;;;;;14.03;8.97;;;;;;;13.48;100.00;99060.25;5134651;27;20202;-72
2023/10/01 00:42:24;;;;;;;12.03;8.67;;;;;;;13.52;100.00;99058.00;5134567;27;20199;-72
2023/10/01 00:44:50;;;;;;;13.60;8.60;;;;;;;13.44;100.00;99055.56;5134580;28;20570;-72
2023/10/01 00:47:17;;;;;;;16.27;9.20;;;;;;;13.43;100.00;99053.94;5134473;28;20563;-72
2023/10/01 00:49:46;;;;;;;14.23;9.50;;;;;;;13.44;100.00;99059.06;5134205;28;20604;-72
2023/10/01 00:52:18;;;;;;;13.80;8.73;;;;;;;13.42;100.00;99052.28;5134460;28;20247;-72
2023/10/01 00:54:45;;;;;;;12.50;8.77;;;;;;;13.42;100.00;99063.78;5134470;28;20279;-72
2023/10/01 00:57:15;;;;;;;14.13;8.83;;;;;;;13.41;100.00;99056.81;5137375;27;20225;-72
2023/10/01 00:59:43;;;;;;;13.73;8.63;;;;;;;13.43;100.00;99060.06;5138719;27;20245;-72
2023/10/01 01:02:11;;;;;;;14.10;7.93;;;;;;;13.44;100.00;99058.25;5138695;27;20206;-72
2023/10/01 01:04:42;;;;;;;13.13;8.87;;;;;;;13.37;100.00;99052.94;5138296;27;20611;-72
2023/10/01 01:07:16;;;;;;;14.73;8.13;;;;;;;13.28;100.00;99056.88;5138559;27;20198;-72
2023/10/01 01:09:45;;;;;;;12.87;8.03;;;;;;;13.32;100.00;99059.91;5138504;27;20206;-72
2023/10/01 01:12:12;;;;;;;14.80;8.83;;;;;;;13.24;100.00;99052.97;5138249;27;20668;-72
2023/10/01 01:14:44;;;;;;;14.67;8.50;;;;;;;13.30;100.00;99059.34;5138180;27;20250;-72
2023/10/01 01:17:13;;;;;;;14.73;8.90;;;;;;;13.24;100.00;99055.66;5138307;27;20211;-72
2023/10/01 01:19:42;;;;;;;13.57;8.87;;;;;;;13.14;100.00;99057.13;5138289;27;20205;-72
2023/10/01 01:22:10;;;;;;;14.80;8.93;;;;;;;13.05;100.00;99056.53;5138258;27;20237;-72
2023/10/01 01:24:37;;;;;;;12.13;8.17;;;;;;;13.04;100.00;99049.56;5138264;27;20206;-72
2023/10/01 01:27:06;;;;;;;12.77;8.50;;;;;;;13.07;100.00;99046.47;5137673;27;20604;-72
2023/10/01 01:29:40;;;;;;;13.73;9.00;;;;;;;13.12;100.00;99043.97;5138141;27;20275;-72
2023/10/01 01:32:13;;;;;;;13.97;9.10;;;;;;;13.18;100.00;99043.16;5137870;27;20297;-72
2023/10/01 01:34:41;;;;;;;11.90;8.27;;;;;;;13.11;100.00;99038.88;5137822;27;20698;-72
2023/10/01 01:37:09;;;;;;;11.93;8.23;;;;;;;13.14;100.00;99038.44;5137565;27;20267;-72
2023/10/01 01:39:54;;;;;;;14.17;8.53;;;;;;;13.05;100.00;99045.88;5137975;27;20252;-72
2023/10/01 01:42:21;;;;;;;11.80;8.30;;;;;;;13.00;100.00;99040.34;5138032;27;20190;-72
2023/10/01 01:45:15;;;;;;;11.50;8.40;;;;;;;13.03;100.00;99044.44;5137878;27;20244;-72
2023/10/01 01:47:39;;;;;;;11.80;8.03;;;;;;;13.10;100.00;99039.88;5137323;27;20229;-72
2023/10/01 01:50:17;;;;;;;12.47;8.43;;;;;;;13.14;100.00;99046.44;5137603;27;20209;-72
2023/10/01 01:52:47;;;;;;;15.50;8.33;;;;;;;13.14;100.00;99041.94;5137789;27;20240;-72
2023/10/01 01:55:23;;;;;;;14.47;8.53;;;;;;;13.10;100.00;99035.38;5137687;27;20205;-72
2023/10/01 01:58:02;;;;;;;15.00;9.27;;;;;;;13.11;100.00;99033.53;5137371;27;20228;-72
2023/10/01 02:00:31;;;;;;;12.87;8.70;;;;;;;13.07;100.00;99018.97;5137556;27;20190;-72
2023/10/01 02:03:02;;;;;;;14.20;8.87;;;;;;;13.07;100.00;99022.44;5137498;27;20202;-72
2023/10/01 02:05:29;;;;;;;14.33;9.37;;;;;;;13.08;100.00;99021.44;5137477;27;20189;-72
2023/10/01 02:07:56;;;;;;;13.17;9.10;;;;;;;12.96;100.00;99025.75;5136289;27;20225;-72
2023/10/01 02:10:23;;;;;;;12.93;8.20;;;;;;;12.91;100.00;99022.88;5137343;27;20203;-72
2023/10/01 02:12:49;;;;;;;15.07;10.60;;;;;;;12.89;100.00;99026.78;5137030;27;20721;-72
2023/10/01 02:15:16;;;;;;;13.73;8.83;;;;;;;12.86;100.00;99014.69;5136857;27;20210;-72
2023/10/01 02:17:43;;;;;;;13.43;9.07;;;;;;;12.93;100.00;99012.00;5136271;27;20232;-72
2023/10/01 02:20:15;;;;;;;13.13;8.67;;;;;;;12.88;100.00;99011.81;5137117;27;20208;-72
2023/10/01 02:22:43;;;;;;;12.77;8.67;;;;;;;12.90;100.00;99015.91;5136160;27;20210;-72
2023/10/01 02:25:10;;;;;;;16.00;9.47;;;;;;;12.97;100.00;99015.91;5137055;27;20287;-72
2023/10/01 02:27:47;;;;;;;11.43;8.37;;;;;;;13.01;100.00;99017.13;5136912;27;20286;-72
2023/10/01 02:30:14;;;;;;;15.13;9.43;;;;;;;13.03;100.00;99009.72;5137110;27;20197;-72
2023/10/01 02:32:49;;;;;;;11.97;9.10;;;;;;;12.98;100.00;99007.69;5136547;27;20640;-72
2023/10/01 02:37:58;;;;;;;12.47;9.40;;;;;;;12.93;100.00;99010.13;5135867;27;20326;-72
2023/10/01 02:40:23;;;;;;;14.87;9.13;;;;;;;12.86;100.00;99014.69;5136477;27;20294;-72
2023/10/01 02:42:50;;;;;;;12.13;9.30;;;;;;;12.82;100.00;99009.97;5136707;27;20290;-72
2023/10/01 02:45:35;;;;;;;11.20;8.63;;;;;;;12.85;100.00;99006.88;5136645;27;20331;-72
2023/10/01 02:48:16;;;;;;;14.37;9.70;;;;;;;12.83;100.00;98999.09;5136671;27;20229;-72
2023/10/01 02:50:45;;;;;;;12.87;8.67;;;;;;;12.77;100.00;99007.94;5136661;27;20193;-72
2023/10/01 02:53:14;;;;;;;15.13;8.60;;;;;;;12.82;100.00;99001.97;5136235;27;20561;-72
2023/10/01 02:55:44;;;;;;;13.93;9.13;;;;;;;12.81;100.00;99009.16;5136188;27;20209;-72
2023/10/01 02:58:20;;;;;;;14.10;8.97;;;;;;;12.79;100.00;99000.53;5136384;27;20221;-72
2023/10/01 03:00:47;;;;;;;13.80;9.10;;;;;;;12.73;100.00;99004.06;5136431;27;20596;-72
2023/10/01 03:03:17;;;;;;;15.67;9.00;;;;;;;12.79;100.00;98997.06;5136447;27;20206;-72
2023/10/01 03:05:46;;;;;;;13.10;9.33;;;;;;;12.87;100.00;98994.13;5135995;27;20563;-72
2023/10/01 03:08:40;;;;;;;13.90;9.50;;;;;;;12.84;100.00;99003.38;5136176;27;20229;-72
2023/10/01 03:11:06;;;;;;;13.83;9.37;;;;;;;12.82;100.00;99002.78;5136194;27;20206;-72
2023/10/01 03:13:33;;;;;;;13.07;8.40;;;;;;;12.85;100.00;98999.69;5135651;27;20206;-72
2023/10/01 03:18:54;;;;;;;14.97;9.27;;;;;;;12.85;100.00;99002.34;5134632;27;20257;-72
2023/10/01 03:22:13;;;;;;;14.13;9.40;;;;;;;12.87;100.00;99004.81;5135899;27;20207;-72
2023/10/01 03:24:20;;;;;;;13.77;9.90;;;;;;;12.82;100.00;99001.97;5135473;27;20210;-72
2023/10/01 03:26:46;;;;;;;14.27;9.70;;;;;;;12.72;100.00;98999.75;5135566;27;20208;-72
2023/10/01 03:29:17;;;;;;;11.40;9.33;;;;;;;12.75;100.00;99004.66;5135787;27;20233;-72
2023/10/01 03:31:46;;;;;;;13.07;9.70;;;;;;;12.89;100.00;99006.25;5135381;27;20695;-72
2023/10/01 03:34:28;;;;;;;16.07;9.30;;;;;;;12.76;100.00;99002.81;5135335;27;20663;-72
2023/10/01 03:37:00;;;;;;;13.50;8.73;;;;;;;12.68;100.00;99006.53;5135584;27;20598;-72
2023/10/01 03:39:27;;;;;;;12.80;8.63;;;;;;;12.68;100.00;99003.03;5135610;27;20197;-72
2023/10/01 03:42:10;;;;;;;13.50;9.33;;;;;;;12.48;100.00;99000.41;5135662;27;20201;-72
2023/10/01 03:47:24;;;;;;;12.23;9.00;;;;;;;12.52;100.00;99006.97;5134795;27;20692;-72
2023/10/01 03:49:54;;;;;;;13.30;9.13;;;;;;;12.53;100.00;99003.25;5135418;27;20202;-72
2023/10/01 03:52:21;;;;;;;12.53;8.67;;;;;;;12.46;100.00;98994.47;5135291;27;20200;-72
2023/10/01 03:55:00;;;;;;;12.80;9.73;;;;;;;12.43;100.00;98996.75;5135314;27;20213;-72
2023/10/01 03:57:29;;;;;;;15.17;8.67;;;;;;;12.39;100.00;99001.63;5135102;27;20332;-72
2023/10/01 03:59:57;;;;;;;12.93;8.47;;;;;;;12.40;100.00;98994.47;5135197;27;20261;-72
2023/10/01 04:02:28;;;;;;;10.30;8.47;;;;;;;12.46;100.00;98996.28;5134749;27;20219;-72
2023/10/01 04:04:58;;;;;;;13.87;8.93;;;;;;;12.43;100.00;99002.06;5135140;27;20197;-72
2023/10/01 04:07:40;;;;;;;13.10;8.67;;;;;;;12.29;100.00;98982.59;5135008;27;20227;-72
2023/10/01 04:10:14;;;;;;;14.97;9.77;;;;;;;12.29;100.00;98987.91;5134773;27;20660;-72
2023/10/01 04:12:49;;;;;;;15.80;9.30;;;;;;;12.26;100.00;98985.66;5134914;27;20192;-72
2023/10/01 04:15:27;;;;;;;14.47;9.23;;;;;;;12.24;100.00;98990.38;5134714;27;20188;-72
2023/10/01 04:23:47;;;;;;;11.80;8.33;;;;;;;12.13;100.00;98988.34;5134978;27;20184;-72
2023/10/01 04:26:17;;;;;;;12.87;8.87;;;;;;;12.12;100.00;98989.34;5134833;27;20191;-72
2023/10/01 04:28:54;;;;;;;13.17;8.67;;;;;;;12.10;100.00;98980.75;5134722;27;20219;-72
2023/10/01 04:31:42;;;;;;;13.90;9.30;;;;;;;12.13;100.00;98992.84;5133996;27;20215;-72
2023/10/01 04:34:11;;;;;;;13.97;8.77;;;;;;;12.04;100.00;98986.94;5134471;27;20211;-72
2023/10/01 04:36:39;;;;;;;13.07;8.60;;;;;;;11.97;100.00;98988.75;5134549;27;20218;-72
2023/10/01 04:39:06;;;;;;;11.60;8.30;;;;;;;11.91;100.00;98994.91;5134526;27;20233;-72
2023/10/01 04:41:32;;;;;;;12.37;9.13;;;;;;;11.93;100.00;98987.53;5134551;27;20207;-72
2023/10/01 04:44:06;;;;;;;13.63;8.57;;;;;;;11.98;100.00;98985.06;5134193;27;20210;-72
2023/10/01 04:46:37;;;;;;;16.10;8.97;;;;;;;11.90;100.00;98985.28;5134519;28;20190;-72
2023/10/01 04:49:08;;;;;;;13.27;8.73;;;;;;;11.96;100.00;98976.47;5134151;28;20751;-72
2023/10/01 04:51:45;;;;;;;12.67;8.90;;;;;;;11.94;100.00;98967.84;5134501;28;20604;-72
2023/10/01 04:54:17;;;;;;;12.50;8.67;;;;;;;11.86;100.00;98960.06;5134499;28;20210;-72
2023/10/01 04:56:57;;;;;;;13.10;8.77;;;;;;;11.93;100.00;98966.22;5134656;28;20593;-72
2023/10/01 04:59:24;;;;;;;11.53;8.60;;;;;;;11.95;100.00;98961.50;5134029;28;20731;-72
2023/10/01 05:01:56;;;;;;;12.43;8.73;;;;;;;11.84;100.00;98963.97;5134434;28;20716;-72
2023/10/01 05:04:23;;;;;;;15.57;9.67;;;;;;;11.89;100.00;98977.50;5134413;28;20195;-72
2023/10/01 05:06:59;;;;;;;13.47;9.17;;;;;;;11.94;100.00;98981.16;5134178;28;20204;-72
2023/10/01 05:09:29;;;;;;;11.43;8.23;;;;;;;11.84;100.00;98991.41;5134250;28;20227;-72
2023/10/01 05:11:56;;;;;;;14.13;9.17;;;;;;;11.76;100.00;98991.59;5134230;28;20307;-72
2023/10/01 05:14:23;;;;;;;11.47;8.37;;;;;;;11.74;100.00;99001.66;5134297;28;20198;-72
2023/10/01 05:16:50;;;;;;;11.67;8.67;;;;;;;11.68;100.00;99001.66;5133868;28;20586;-72
2023/10/01 05:19:23;;;;;;;15.47;9.30;;;;;;;11.72;100.00;99005.56;5134204;28;20228;-72
2023/10/01 05:21:50;;;;;;;14.83;9.33;;;;;;;11.72;100.00;99009.03;5134278;28;20242;-72
2023/10/01 05:24:34;;;;;;;12.30;9.20;;;;;;;11.69;100.00;99008.59;5135293;28;20227;-72
2023/10/01 05:27:02;;;;;;;12.50;8.40;;;;;;;11.72;100.00;99016.22;5133874;28;20267;-72
2023/10/01 05:29:29;;;;;;;13.17;8.93;;;;;;;11.72;100.00;99019.72;5134189;28;20206;-72
2023/10/01 05:31:57;;;;;;;13.20;8.20;;;;;;;11.72;100.00;99013.53;5133835;28;20235;-72
2023/10/01 05:34:25;;;;;;;12.17;8.60;;;;;;;11.76;100.00;99020.91;5134073;28;20209;-72
2023/10/01 05:36:52;;;;;;;12.23;8.53;;;;;;;11.71;100.00;99018.03;5133969;28;20225;-72
2023/10/01 05:39:23;;;;;;;12.20;8.40;;;;;;;11.79;100.00;99020.50;5133986;28;20224;-72
2023/10/01 05:41:51;;;;;;;14.23;8.77;;;;;;;11.88;100.00;99019.28;5133821;27;20230;-72
2023/10/01 05:44:18;;;;;;;11.80;8.47;;;;;;;11.93;100.00;99016.03;5136901;27;20670;-72
2023/10/01 05:46:46;;;;;;;13.23;8.90;;;;;;;12.05;100.00;99014.38;5137803;27;20226;-72
2023/10/01 05:49:12;;;;;;;15.00;9.00;;;;;;;11.98;100.00;99030.38;5138274;27;20230;-72
2023/10/01 05:51:44;;;;;;;11.50;8.23;;;;;;;12.02;100.00;99036.94;5137802;27;20200;-72
2023/10/01 05:54:18;;;;;;;11.67;8.60;;;;;;;12.06;100.00;99042.66;5137716;27;20187;-72
2023/10/01 05:56:47;;;;;;;13.77;8.83;;;;;;;12.11;100.00;99034.91;5137722;27;20295;-72
2023/10/01 05:59:14;;;;;;;11.87;8.47;;;;;;;12.15;100.00;99036.94;5137238;27;20223;-72
2023/10/01 06:01:41;;;;;;;12.37;8.77;;;;;;;12.17;100.00;99037.53;5137553;27;20218;-72
2023/10/01 06:04:12;;;;;;;12.80;9.00;;;;;;;12.18;100.00;99033.88;5137543;27;20204;-72
2023/10/01 06:06:43;;;;;;;11.80;8.40;;;;;;;12.14;100.00;99045.13;5137575;27;20200;-72
2023/10/01 06:09:14;;;;;;;11.03;8.53;;;;;;;12.18;100.00;99041.03;5137024;27;20228;-72
2023/10/01 06:11:48;;;;;;;11.77;8.37;;;;;;;12.16;100.00;99043.09;5137348;27;20211;-72
2023/10/01 06:17:10;;;;;;;12.63;8.57;;;;;;;12.22;100.00;99056.44;5132348;27;20532;-71
2023/10/01 06:19:40;;;;;;;12.67;8.50;;;;;;;12.27;100.00;99045.97;5131722;27;20206;-71
2023/10/01 06:22:22;;;;;;;13.30;8.60;;;;;;;12.32;100.00;99048.84;5131470;27;20193;-71
2023/10/01 06:24:49;;;;;;;12.20;8.83;;;;;;;12.41;100.00;99052.94;5131850;27;20281;-71
2023/10/01 06:27:18;;;;;;;12.50;8.57;;;;;;;12.51;100.00;99049.84;5131413;27;20207;-71
2023/10/01 06:29:51;;;;;;;11.80;8.80;;;;;;;12.53;100.00;99050.47;5131578;27;20205;-71
2023/10/01 06:32:22;;;;;;;12.60;8.63;;;;;;;12.52;100.00;99043.50;5131819;27;20228;-72
2023/10/01 06:34:49;;;;;;;11.77;8.17;;;;;;;12.62;100.00;99041.22;5131369;27;20637;-72
2023/10/01 06:37:16;;;;;;;11.50;8.67;;;;;;;12.55;100.00;99043.91;5131317;27;20656;-72
2023/10/01 06:39:43;;;;;;;12.50;8.03;;;;;;;12.62;100.00;99049.22;5131466;28;20231;-72
2023/10/01 06:42:19;;;;;;;11.37;8.07;;;;;;;12.62;100.00;99051.91;5131470;28;20213;-72
2023/10/01 06:44:55;;;;;;;13.23;8.70;;;;;;;12.70;100.00;99055.16;5131570;27;20246;-72
2023/10/01 06:47:25;;;;;;;12.93;8.30;;;;;;;12.72;100.00;99047.78;5131426;27;20292;-72
2023/10/01 06:50:07;;;;;;;12.57;8.40;;;;;;;12.74;100.00;99051.03;5131350;27;20205;-72
2023/10/01 06:52:36;;;;;;;15.47;8.77;;;;;;;12.83;100.00;99057.78;5131387;27;20194;-72
2023/10/01 06:55:03;;;;;;;10.83;7.77;;;;;;;12.84;100.00;99055.97;5130980;27;20212;-72
2023/10/01 06:57:33;;;;;;;13.83;9.00;;;;;;;12.96;100.00;99065.78;5131825;27;20226;-72
2023/10/01 07:00:00;;;;;;;11.83;8.70;;;;;;;13.23;100.00;99067.38;5131200;27;20201;-71
2023/10/01 07:02:28;;;;;;;10.70;8.07;;;;;;;13.10;100.00;99061.22;5131040;27;20228;-71
2023/10/01 07:04:58;;;;;;;11.87;8.40;;;;;;;13.17;100.00;99062.03;5130832;27;20669;-72
2023/10/01 07:07:29;;;;;;;12.37;8.70;;;;;;;13.37;100.00;99068.94;5130930;27;20233;-72
2023/10/01 07:09:56;;;;;;;12.43;8.00;;;;;;;13.39;100.00;99061.53;5130951;27;20205;-72
2023/10/01 07:12:23;;;;;;;10.43;7.60;;;;;;;13.46;100.00;99064.19;5130531;27;20576;-72
2023/10/01 07:14:51;;;;;;;10.37;7.67;;;;;;;13.51;100.00;99069.69;5130907;27;20211;-72
2023/10/01 07:17:23;;;;;;;11.57;7.83;;;;;;;13.58;100.00;99074.00;5130780;27;20213;-72
2023/10/01 07:19:59;;;;;;;13.23;8.60;;;;;;;13.69;100.00;99073.31;5130800;27;20214;-72
2023/10/01 07:22:26;;;;;;;12.23;8.50;;;;;;;13.79;100.00;99071.00;5130812;27;20635;-72
2023/10/01 07:24:53;;;;;;;12.57;7.97;;;;;;;13.73;100.00;99079.03;5130321;27;20669;-72
2023/10/01 07:27:21;;;;;;;13.97;8.17;;;;;;;13.75;100.00;99080.47;5123493;27;20199;-72
2023/10/01 07:29:52;;;;;;;12.20;7.83;;;;;;;13.77;100.00;99074.91;5117371;28;20235;-72
2023/10/01 07:32:19;;;;;;;11.83;8.33;;;;;;;13.92;100.00;99078.09;5116935;28;20198;-72
2023/10/01 07:34:48;;;;;;;12.87;7.80;;;;;;;14.11;100.00;99083.31;5116771;28;20225;-72
2023/10/01 07:37:23;;;;;;;13.83;8.73;;;;;;;14.12;100.00;99090.34;5116589;28;20219;-72
2023/10/01 07:39:53;;;;;;;15.27;8.03;;;;;;;14.12;100.00;99087.66;5116651;28;20190;-72
2023/10/01 07:42:19;;;;;;;11.67;8.20;;;;;;;14.25;100.00;99100.16;5116092;28;20573;-72
2023/10/01 07:44:45;;;;;;;13.70;7.97;;;;;;;14.31;100.00;99100.09;5116444;28;20210;-71
2023/10/01 07:47:28;;;;;;;14.23;8.27;;;;;;;14.26;100.00;99099.09;5116111;28;20199;-72
2023/10/01 07:50:02;;;;;;;10.47;8.40;;;;;;;14.36;100.00;99102.09;5116533;28;20202;-72
2023/10/01 07:52:29;;;;;;;12.17;8.43;;;;;;;14.50;100.00;99100.97;5116501;28;20187;-72
2023/10/01 07:54:57;;;;;;;13.67;9.07;;;;;;;14.47;100.00;99102.22;5115999;28;20203;-72
2023/10/01 07:57:27;;;;;;;10.33;7.77;;;;;;;14.61;100.00;99098.38;5116086;28;20359;-72
2023/10/01 08:00:10;;;;;;;11.23;8.50;;;;;;;14.70;100.00;99105.09;5115860;28;20590;-72
2023/10/01 08:03:27;;;;;;;12.73;8.80;;;;;;;14.84;100.00;99103.94;5115705;28;20622;-72
2023/10/01 08:05:22;;;;;;;11.10;8.20;;;;;;;14.83;100.00;99107.66;5115627;28;20576;-72
2023/10/01 08:07:50;;;;;;;13.07;8.77;;;;;;;14.81;100.00;99107.09;5115881;28;20223;-72
2023/10/01 08:10:19;;;;;;;10.80;8.93;;;;;;;15.01;100.00;99105.03;5116086;28;20298;-71
2023/10/01 08:15:57;;;;;;;13.30;8.47;;;;;;;15.17;100.00;99109.81;5066894;28;20227;-72
2023/10/01 08:18:34;;;;;;;12.50;8.30;;;;;;;15.17;100.00;99108.97;5115375;28;20223;-72
2023/10/01 08:21:03;;;;;;;14.33;8.23;;;;;;;15.35;100.00;99109.84;5115769;28;20244;-72
2023/10/01 08:23:31;;;;;;;11.17;8.37;;;;;;;15.38;100.00;99112.06;5115522;28;20207;-72
2023/10/01 08:26:39;;;;;;;11.57;7.33;;;;;;;15.48;100.00;99109.69;5115144;28;20658;-72
2023/10/01 08:28:55;;;;;;;12.37;8.67;;;;;;;15.45;100.00;99117.34;5115193;28;20226;-72
2023/10/01 08:31:43;;;;;;;11.23;8.47;;;;;;;15.44;100.00;99110.34;5116518;28;20674;-72
2023/10/01 08:36:55;;;;;;;17.27;8.40;;;;;;;15.73;100.00;99109.56;5111695;28;20233;-72
2023/10/01 08:39:47;;;;;;;11.03;7.87;;;;;;;15.87;100.00;99117.22;5114340;28;20231;-72
2023/10/01 08:42:16;;;;;;;12.23;8.03;;;;;;;16.10;100.00;99108.44;5115303;28;20215;-72
2023/10/01 08:45:02;;;;;;;11.87;7.60;;;;;;;16.06;100.00;99102.69;5115151;28;20203;-72
2023/10/01 08:47:31;;;;;;;11.67;8.17;;;;;;;16.25;100.00;99109.66;5115175;28;20226;-72
2023/10/01 08:53:01;;;;;;;11.20;7.60;;;;;;;16.63;100.00;99106.59;5111935;28;20210;-72
2023/10/01 08:55:39;;;;;;;10.07;7.27;;;;;;;16.65;100.00;99101.81;5114796;28;20685;-72
2023/10/01 08:58:25;;;;;;;12.50;7.90;;;;;;;16.86;100.00;99115.50;5115016;28;20230;-72
2023/10/01 09:00:56;;;;;;;10.53;7.40;;;;;;;16.92;100.00;99111.88;5115082;28;20228;-72
2023/10/01 09:03:28;;;;;;;10.10;7.50;;;;;;;16.93;100.00;99102.78;5115104;28;20199;-72
2023/10/01 09:06:03;;;;;;;11.50;7.30;;;;;;;17.20;100.00;99108.47;5115366;28;20203;-72
2023/10/01 09:08:31;;;;;;;10.97;7.93;;;;;;;17.31;100.00;99107.63;5114908;28;20226;-72
2023/10/01 09:10:59;;;;;;;10.70;7.83;;;;;;;17.33;100.00;99108.22;5114574;28;20611;-73
2023/10/01 09:13:30;;;;;;;10.43;7.33;;;;;;;17.37;100.00;99110.19;5114790;28;20203;-73
2023/10/01 09:16:10;;;;;;;10.47;7.30;;;;;;;17.42;100.00;99104.16;5114321;28;20234;-73
2023/10/01 09:19:01;;;;;;;10.70;7.60;;;;;;;17.37;100.00;99112.88;5114404;28;20764;-73
2023/10/01 09:21:38;;;;;;;10.30;7.40;;;;;;;17.47;100.00;99104.25;5114367;28;20190;-73
2023/10/01 09:24:31;;;;;;;10.30;7.50;;;;;;;17.84;100.00;99100.97;5114401;28;20187;-73
2023/10/01 09:27:08;;;;;;;9.33;7.07;;;;;;;18.07;100.00;99100.88;5114216;28;20194;-73
2023/10/01 09:29:43;;;;;;;15.87;7.83;;;;;;;18.07;100.00;99100.88;5114615;28;20187;-73
2023/10/01 09:32:11;;;;;;;11.50;7.37;;;;;;;18.18;100.00;99100.00;5114506;28;20186;-73
2023/10/01 09:34:46;;;;;;;9.70;7.50;;;;;;;18.22;100.00;99103.00;5114427;28;20290;-73
2023/10/01 09:37:17;;;;;;;10.90;6.97;;;;;;;18.32;100.00;99104.00;5114286;28;20210;-73
2023/10/01 09:39:44;;;;;;;11.27;7.57;;;;;;;18.29;100.00;99093.75;5114033;28;20650;-73
2023/10/01 09:42:25;;;;;;;10.17;7.73;;;;;;;18.42;100.00;99098.81;5114235;28;20203;-73
2023/10/01 09:45:09;;;;;;;10.43;7.33;;;;;;;18.66;100.00;99091.41;5114003;28;20555;-73
2023/10/01 09:47:36;;;;;;;10.40;6.80;;;;;;;18.81;100.00;99103.25;5113638;28;20240;-73
2023/10/01 09:50:05;;;;;;;10.17;7.00;;;;;;;19.08;100.00;99100.66;5113628;28;20203;-73
2023/10/01 09:52:48;;;;;;;11.93;7.67;;;;;;;19.04;100.00;99103.03;5113818;28;20619;-73
2023/10/01 09:55:25;;;;;;;11.43;7.23;;;;;;;19.23;100.00;99095.53;5113918;28;20634;-73
2023/10/01 09:57:54;;;;;;;12.33;8.03;;;;;;;19.17;100.00;99093.78;5113578;28;20689;-73
2023/10/01 10:00:21;;;;;;;12.83;8.23;;;;;;;19.02;100.00;99089.00;5113699;28;20203;-73
2023/10/01 10:02:53;;;;;;;12.27;7.90;;;;;;;19.40;100.00;99090.88;5113908;28;20302;-73
2023/10/01 10:05:26;;;;;;;10.60;6.70;;;;;;;19.51;100.00;99082.66;5113868;28;20192;-73
2023/10/01 10:08:13;;;;;;;13.43;7.77;;;;;;;19.78;99.16;99078.13;5113817;28;20254;-73
2023/10/01 10:10:52;;;;;;;10.87;7.17;;;;;;;19.54;99.76;99070.59;5113434;28;20232;-73
2023/10/01 10:13:46;;;;;;;12.07;7.43;;;;;;;19.99;96.74;99067.56;5113908;28;20191;-73
2023/10/01 10:19:13;;;;;;;8.47;7.00;;;;;;;20.04;96.75;99059.53;5092762;28;20215;-73
2023/10/01 10:22:05;;;;;;;10.60;7.07;;;;;;;20.20;95.43;99048.63;5113560;28;20270;-73
2023/10/01 10:24:31;;;;;;;12.67;7.57;;;;;;;20.26;94.98;99055.69;5113670;28;20197;-73
2023/10/01 10:27:08;;;;;;;9.33;6.33;;;;;;;20.22;93.35;99057.31;5113330;28;20681;-73
2023/10/01 10:29:56;;;;;;;9.77;6.37;;;;;;;20.30;92.83;99054.13;5113554;28;20206;-73
2023/10/01 10:32:31;;;;;;;8.70;6.67;;;;;;;20.36;90.16;99046.88;5113277;28;20646;-73
2023/10/01 10:35:03;;;;;;;9.53;6.73;;;;;;;20.67;89.89;99043.34;5113821;28;20289;-73
2023/10/01 10:37:36;;;;;;;11.53;6.87;;;;;;;20.71;90.07;99039.06;5113107;28;20223;-72
2023/10/01 10:40:12;;;;;;;9.73;6.63;;;;;;;20.57;89.80;99043.28;5113049;28;20234;-72
2023/10/01 10:43:02;;;;;;;9.67;6.30;;;;;;;20.55;88.42;99040.00;5112862;28;20661;-72
2023/10/01 10:45:42;;;;;;;10.83;6.83;;;;;;;20.79;87.80;99044.00;5104095;28;20648;-73
2023/10/01 10:48:10;;;;;;;12.10;7.03;;;;;;;20.84;86.77;99036.69;5113597;28;20660;-73
2023/10/01 10:50:53;;;;;;;9.67;7.00;;;;;;;21.08;84.77;99037.16;5113189;28;20677;-73
2023/10/01 10:53:26;;;;;;;9.30;6.60;;;;;;;21.12;85.37;99033.63;5113470;28;20194;-72
2023/10/01 10:56:07;;;;;;;10.27;6.53;;;;;;;21.21;83.75;99039.38;5113098;28;20229;-72
2023/10/01 10:59:01;;;;;;;10.37;7.27;;;;;;;21.12;86.56;99035.56;5113740;28;20276;-72
2023/10/01 11:01:43;;;;;;;10.63;7.85;;;;;;;20.93;86.33;99042.47;5113723;28;20459;-71
2023/10/01 11:04:10;;;;;;;11.87;7.53;;;;;;;20.79;86.43;99035.88;5118075;28;20187;-72
2023/10/01 11:06:42;;;;;;;12.37;7.40;;;;;;;20.82;86.11;99040.75;5117462;28;20570;-72
2023/10/01 11:09:26;;;;;;;10.93;7.50;;;;;;;21.06;80.55;99047.41;5117888;28;20227;-72
2023/10/01 11:12:02;;;;;;;11.93;7.13;;;;;;;21.08;80.87;99039.84;5118798;28;20205;-72
2023/10/01 11:14:28;;;;;;;9.93;7.33;;;;;;;21.01;78.83;99029.28;5118296;28;20187;-72
2023/10/01 11:16:54;;;;;;;11.57;7.30;;;;;;;21.13;80.79;99037.16;5116586;28;20223;-72
2023/10/01 11:19:27;;;;;;;9.97;7.13;;;;;;;21.20;77.71;99030.44;5116828;28;20223;-72
2023/10/01 11:22:00;;;;;;;13.87;7.83;;;;;;;20.98;77.25;99026.28;5116864;28;20200;-72
2023/10/01 11:24:31;;;;;;;10.23;7.03;;;;;;;20.69;77.25;99020.41;5116337;27;20199;-73
2023/10/01 11:27:17;;;;;;;14.27;7.93;;;;;;;20.88;76.76;99018.06;5116827;28;20203;-72
2023/10/01 11:30:20;;;;;;;11.53;7.40;;;;;;;20.93;75.43;99023.56;5116608;28;20246;-72
2023/10/01 11:33:12;;;;;;;13.00;7.77;;;;;;;21.14;76.13;99017.16;5112574;28;20203;-72
2023/10/01 11:35:59;;;;;;;11.67;7.57;;;;;;;21.31;76.43;99012.38;5116614;28;20198;-72
2023/10/01 11:38:31;;;;;;;11.83;7.33;;;;;;;21.38;74.81;99019.16;5116384;28;20223;-72
2023/10/01 11:41:07;;;;;;;9.33;7.07;;;;;;;21.40;72.55;99008.91;5116145;28;20635;-72
2023/10/01 11:43:58;;;;;;;11.00;7.57;;;;;;;21.22;73.42;99003.13;5116604;28;20629;-72
2023/10/01 11:46:39;;;;;;;12.87;8.20;;;;;;;21.21;74.57;98991.50;5116479;28;20179;-72
2023/10/01 11:49:15;;;;;;;13.20;7.20;;;;;;;21.28;75.02;98994.78;5116177;28;20309;-72
2023/10/01 11:51:45;;;;;;;11.97;7.93;;;;;;;21.29;73.40;98988.28;5116409;28;20194;-72
2023/10/01 11:54:13;;;;;;;11.17;7.60;;;;;;;21.21;74.61;98993.41;5115922;28;20677;-72
2023/10/01 11:56:42;;;;;;;10.63;7.20;;;;;;;21.35;73.45;98986.41;5116142;28;20231;-72
2023/10/01 11:59:17;;;;;;;11.50;7.63;;;;;;;21.53;72.35;98988.66;5116088;28;20227;-72
2023/10/01 12:01:50;;;;;;;12.13;7.53;;;;;;;21.39;72.32;98979.41;5115624;28;20557;-72
2023/10/01 12:07:15;;;;;;;11.50;7.40;;;;;;;21.36;72.57;98972.63;5115249;27;20184;-75
2023/10/01 12:09:48;;;;;;;10.03;7.50;;;;;;;21.53;74.16;98972.41;5115492;28;20205;-72
2023/10/01 12:12:15;;;;;;;13.03;7.67;;;;;;;21.48;73.08;98970.47;5116064;28;20195;-72
2023/10/01 12:14:54;;;;;;;12.90;7.57;;;;;;;21.49;73.00;98961.31;5115571;27;20199;-72